Time;durP1;ratioP1;P1;durP2;ratioP2;P2;SDS_P1;SDS_P2;PMS_P1;PMS_P2;Temp;Humidity;BMP_temperature;BMP_pressure;BME280_temperature;BME280_humidity;BME280_pressure;Samples;Min_cycle;Max_cycle;Signal;HPM_P1;HPM_P2
2023/04/06 00:01:17;;;;;;;12.48;9.02;;;;;;;2.86;100.00;100244.22;5010612;28;20057;-70
2023/04/06 00:03:42;;;;;;;12.45;9.70;;;;;;;2.84;100.00;100243.25;5010625;28;20056;-71
2023/04/06 00:06:08;;;;;;;13.15;9.80;;;;;;;2.84;100.00;100253.44;5011044;28;20041;-69
2023/04/06 00:08:33;;;;;;;12.88;9.90;;;;;;;2.79;100.00;100252.28;5010841;28;20058;-71
2023/04/06 00:10:59;;;;;;;13.75;10.18;;;;;;;2.69;100.00;100254.25;5010606;28;20034;-70
2023/04/06 00:13:25;;;;;;;13.48;10.65;;;;;;;2.67;100.00;100242.19;5010410;28;20038;-69
2023/04/06 00:15:50;;;;;;;15.18;11.38;;;;;;;2.66;100.00;100243.81;5010109;28;20049;-68
2023/04/06 00:18:16;;;;;;;14.40;10.30;;;;;;;2.56;100.00;100234.69;5010427;28;20046;-70
2023/04/06 00:20:41;;;;;;;13.50;10.32;;;;;;;2.55;100.00;100237.16;5010189;28;20598;-69
2023/04/06 00:23:06;;;;;;;12.27;9.18;;;;;;;2.39;100.00;100215.78;5010395;28;20049;-74
2023/04/06 00:25:32;;;;;;;11.52;8.57;;;;;;;2.49;100.00;100221.47;5010321;28;20037;-72
2023/04/06 00:27:57;;;;;;;13.05;8.30;;;;;;;2.36;100.00;100222.34;5010665;28;20543;-72
2023/04/06 00:30:23;;;;;;;13.15;10.73;;;;;;;2.45;100.00;100214.41;5010221;28;20416;-75
2023/04/06 00:32:48;;;;;;;11.15;8.57;;;;;;;2.30;100.00;100206.66;5010564;28;20079;-71
2023/04/06 00:35:14;;;;;;;12.88;9.35;;;;;;;2.25;100.00;100214.84;5010270;28;20061;-70
2023/04/06 00:37:40;;;;;;;12.05;6.55;;;;;;;1.89;100.00;100160.69;5010024;28;20048;-71
2023/04/06 00:40:06;;;;;;;14.85;10.80;;;;;;;2.16;100.00;100193.00;5010232;28;20467;-68
2023/04/06 00:42:32;;;;;;;14.70;10.75;;;;;;;2.28;100.00;100198.91;5010380;28;20091;-72
2023/04/06 00:44:59;;;;;;;15.63;11.13;;;;;;;2.14;100.00;100204.75;5009852;28;20050;-68
2023/04/06 00:47:26;;;;;;;14.27;10.43;;;;;;;2.08;100.00;100207.75;5010314;28;20034;-68
2023/04/06 00:49:52;;;;;;;14.15;11.13;;;;;;;2.02;100.00;100164.97;5010120;28;20077;-72
2023/04/06 00:52:18;;;;;;;15.75;11.25;;;;;;;1.93;100.00;100146.50;5008772;28;20034;-70
2023/04/06 00:54:44;;;;;;;11.27;6.85;;;;;;;1.86;100.00;100147.78;5010040;28;20409;-73
2023/04/06 00:57:12;;;;;;;12.10;9.25;;;;;;;2.00;100.00;100204.69;5010112;28;20050;-71
2023/04/06 00:59:38;;;;;;;13.15;9.25;;;;;;;1.88;100.00;100203.88;5012117;28;20037;-70
2023/04/06 01:02:03;;;;;;;12.57;7.28;;;;;;;1.68;100.00;100190.69;5014085;28;20516;-74
2023/04/06 01:04:29;;;;;;;15.75;10.60;;;;;;;1.76;100.00;100196.31;5013983;28;20117;-71
2023/04/06 01:06:55;;;;;;;15.27;10.80;;;;;;;1.82;100.00;100204.38;5013924;28;20042;-70
2023/04/06 01:09:22;;;;;;;14.83;11.37;;;;;;;1.87;100.00;100202.09;5013903;28;20037;-71
2023/04/06 01:11:48;;;;;;;15.82;11.80;;;;;;;1.83;100.00;100167.06;5013602;28;20111;-70
2023/04/06 01:14:14;;;;;;;14.18;10.75;;;;;;;1.87;100.00;100197.00;5013664;28;20488;-71
2023/04/06 01:16:41;;;;;;;15.88;11.48;;;;;;;1.93;100.00;100194.88;5013533;28;20131;-70
2023/04/06 01:19:13;;;;;;;15.55;11.13;;;;;;;1.89;100.00;100187.81;5013670;28;20033;-68
2023/04/06 01:21:40;;;;;;;14.88;9.75;;;;;;;1.67;100.00;100155.84;5013307;28;20053;-71
2023/04/06 01:24:06;;;;;;;14.15;10.43;;;;;;;1.99;100.00;100199.50;5013526;28;20052;-72
2023/04/06 01:26:32;;;;;;;15.82;12.48;;;;;;;1.96;100.00;100197.66;5013416;28;20038;-71
2023/04/06 01:28:58;;;;;;;13.75;11.00;;;;;;;2.02;100.00;100203.16;5013595;28;20041;-69
2023/04/06 01:31:24;;;;;;;14.95;10.68;;;;;;;2.07;100.00;100195.84;5013185;28;20029;-72
2023/04/06 01:33:50;;;;;;;16.13;11.60;;;;;;;2.19;100.00;100200.84;5013188;28;20053;-71
2023/04/06 01:36:16;;;;;;;14.55;11.25;;;;;;;2.29;100.00;100195.56;5013344;28;20038;-68
2023/04/06 01:38:41;;;;;;;14.85;10.82;;;;;;;1.89;100.00;100149.66;5013120;28;20225;-71
2023/04/06 01:41:08;;;;;;;15.02;11.18;;;;;;;2.34;100.00;100193.31;5012924;28;20459;-73
2023/04/06 01:43:34;;;;;;;14.93;11.23;;;;;;;2.35;100.00;100177.25;5013343;28;20029;-70
2023/04/06 01:46:00;;;;;;;14.57;11.20;;;;;;;2.13;100.00;100141.84;5013562;28;20042;-70
2023/04/06 01:48:26;;;;;;;15.13;10.82;;;;;;;2.30;100.00;100159.13;5013165;28;20123;-69
2023/04/06 01:50:52;;;;;;;13.80;10.85;;;;;;;2.38;100.00;100185.09;5012800;28;20526;-71
2023/04/06 01:53:18;;;;;;;14.15;10.20;;;;;;;2.37;100.00;100179.13;5013533;28;20034;-72
2023/04/06 01:55:43;;;;;;;13.20;9.85;;;;;;;2.42;100.00;100185.38;5011624;28;20034;-74
2023/04/06 01:58:09;;;;;;;12.82;10.00;;;;;;;2.49;100.00;100193.44;5013095;28;20026;-70
2023/04/06 02:00:34;;;;;;;15.65;10.15;;;;;;;2.54;100.00;100189.50;5012606;28;20281;-71
2023/04/06 02:03:00;;;;;;;11.98;9.40;;;;;;;2.52;100.00;100171.59;5012850;28;20037;-68
2023/04/06 02:05:26;;;;;;;12.45;9.32;;;;;;;2.54;100.00;100179.31;5013056;28;20034;-68
2023/04/06 02:07:52;;;;;;;11.55;8.30;;;;;;;2.60;100.00;100187.34;5012428;28;20524;-68
2023/04/06 02:10:17;;;;;;;12.77;9.18;;;;;;;2.67;100.00;100186.09;5012248;28;20479;-69
2023/04/06 02:12:43;;;;;;;12.43;9.48;;;;;;;2.62;100.00;100187.44;4994159;28;20069;-71
2023/04/06 02:15:09;;;;;;;12.25;9.65;;;;;;;2.72;100.00;100183.03;5012649;28;20088;-71
2023/04/06 02:17:35;;;;;;;12.30;9.15;;;;;;;2.81;100.00;100171.69;5012332;28;20507;-72
2023/04/06 02:20:00;;;;;;;13.25;9.35;;;;;;;2.78;100.00;100164.72;5011269;28;20037;-72
2023/04/06 02:22:25;;;;;;;11.30;9.00;;;;;;;2.81;100.00;100179.31;5012147;28;20119;-72
2023/04/06 02:24:51;;;;;;;12.23;9.23;;;;;;;2.67;100.00;100171.69;5012486;28;20034;-69
2023/04/06 02:27:16;;;;;;;10.95;9.05;;;;;;;2.82;100.00;100171.78;5028706;28;20037;-69
2023/04/06 02:29:42;;;;;;;11.27;8.05;;;;;;;2.82;100.00;100171.78;5032235;28;20420;-69
2023/04/06 02:32:10;;;;;;;10.10;7.93;;;;;;;2.47;100.00;100147.47;5032214;28;20385;-70
2023/04/06 02:34:35;;;;;;;12.50;9.65;;;;;;;2.57;100.00;100131.13;5031847;28;20508;-73
2023/04/06 02:37:01;;;;;;;13.75;8.90;;;;;;;2.69;100.00;100167.56;5031947;28;20033;-72
2023/04/06 02:39:26;;;;;;;10.75;7.90;;;;;;;2.54;100.00;100181.88;5031752;28;20091;-72
2023/04/06 02:41:52;;;;;;;12.80;8.73;;;;;;;2.51;100.00;100187.66;5031889;28;20088;-69
2023/04/06 02:44:18;;;;;;;13.68;8.80;;;;;;;2.32;100.00;100174.50;5032002;28;20506;-71
2023/04/06 02:46:43;;;;;;;11.15;8.85;;;;;;;2.43;100.00;100183.75;5031637;28;20022;-71
2023/04/06 02:49:09;;;;;;;9.65;7.43;;;;;;;1.76;100.00;100100.47;5031550;28;20038;-71
2023/04/06 02:51:34;;;;;;;12.20;8.63;;;;;;;2.18;100.00;100182.13;5028393;28;20033;-71
2023/04/06 02:54:00;;;;;;;11.80;9.20;;;;;;;2.08;100.00;100165.38;4990962;28;20042;-71
2023/04/06 02:56:26;;;;;;;13.43;9.48;;;;;;;2.03;100.00;100148.91;5003239;28;20453;-71
2023/04/06 02:58:51;;;;;;;13.25;9.50;;;;;;;2.37;100.00;100188.44;5011826;28;20069;-75
2023/04/06 03:01:17;;;;;;;13.93;10.00;;;;;;;2.50;100.00;100185.88;5012016;28;20029;-71
2023/04/06 03:03:42;;;;;;;12.65;9.18;;;;;;;2.39;100.00;100179.22;5012067;28;20404;-73
2023/04/06 03:06:08;;;;;;;13.55;9.85;;;;;;;2.43;100.00;100189.72;5011820;28;20060;-72
2023/04/06 03:08:33;;;;;;;13.23;9.82;;;;;;;2.51;100.00;100184.22;5011195;28;20440;-69
2023/04/06 03:10:59;;;;;;;14.27;10.20;;;;;;;2.37;100.00;100188.44;5011563;28;20584;-73
2023/04/06 03:13:24;;;;;;;14.35;9.55;;;;;;;2.34;100.00;100150.00;5011539;28;20164;-71
2023/04/06 03:15:50;;;;;;;15.23;9.90;;;;;;;2.45;100.00;100182.16;5011555;28;20114;-69
2023/04/06 03:18:15;;;;;;;13.10;10.07;;;;;;;2.38;100.00;100169.78;5011273;28;20061;-74
2023/04/06 03:20:41;;;;;;;14.98;10.68;;;;;;;2.34;100.00;100181.44;5011224;28;20049;-74
2023/04/06 03:23:07;;;;;;;12.13;8.27;;;;;;;2.07;100.00;100178.88;5010548;28;20042;-68
2023/04/06 03:25:32;;;;;;;16.38;10.23;;;;;;;2.05;100.00;100162.59;5011650;28;20042;-69
2023/04/06 03:27:58;;;;;;;13.88;9.90;;;;;;;2.15;100.00;100178.50;5011031;28;20038;-70
2023/04/06 03:30:23;;;;;;;13.75;10.07;;;;;;;2.23;100.00;100173.13;5011248;28;20041;-70
2023/04/06 03:32:49;;;;;;;12.88;10.00;;;;;;;2.22;100.00;100173.91;5011244;28;20484;-71
2023/04/06 03:35:14;;;;;;;13.20;9.45;;;;;;;2.03;100.00;100169.28;5010987;28;20030;-69
2023/04/06 03:37:40;;;;;;;16.02;9.95;;;;;;;2.24;100.00;100181.63;5010832;28;20030;-70
2023/04/06 03:40:06;;;;;;;14.50;9.75;;;;;;;2.30;100.00;100178.63;5010975;28;20037;-69
2023/04/06 03:42:32;;;;;;;14.00;10.40;;;;;;;2.39;100.00;100181.75;5011178;28;20042;-70
2023/04/06 03:44:58;;;;;;;14.13;10.05;;;;;;;2.44;100.00;100182.94;5011062;28;20069;-71
2023/04/06 03:47:25;;;;;;;13.65;10.02;;;;;;;2.48;100.00;100179.81;5011032;28;20431;-75
2023/04/06 03:49:51;;;;;;;13.98;10.25;;;;;;;2.42;100.00;100162.47;5010756;28;20049;-69
2023/04/06 03:52:16;;;;;;;13.60;9.73;;;;;;;2.54;100.00;100181.88;5010616;28;20045;-72
2023/04/06 03:54:41;;;;;;;12.38;8.65;;;;;;;1.95;100.00;100167.88;5010777;28;20042;-71
2023/04/06 03:57:07;;;;;;;13.02;9.75;;;;;;;2.21;100.00;100189.97;5010647;28;20476;-70
2023/04/06 03:59:33;;;;;;;13.23;9.82;;;;;;;2.29;100.00;100187.91;5010867;28;20042;-70
2023/04/06 04:01:58;;;;;;;10.93;8.65;;;;;;;2.10;100.00;100185.84;5010577;28;20046;-71
2023/04/06 04:04:24;;;;;;;13.18;8.95;;;;;;;2.10;100.00;100186.69;5010581;28;20034;-70
2023/04/06 04:06:49;;;;;;;13.32;8.70;;;;;;;2.08;100.00;100179.75;5009377;28;20182;-69
2023/04/06 04:09:15;;;;;;;12.25;9.13;;;;;;;1.75;100.00;100139.41;5010533;28;20546;-76
2023/04/06 04:11:40;;;;;;;12.65;8.85;;;;;;;1.71;100.00;100178.19;5010720;28;20088;-71
2023/04/06 04:14:06;;;;;;;12.00;7.35;;;;;;;1.63;100.00;100183.53;5010158;28;20113;-71
2023/04/06 04:16:31;;;;;;;13.23;9.70;;;;;;;1.64;100.00;100196.34;5010256;28;20042;-71
2023/04/06 04:18:58;;;;;;;15.27;9.60;;;;;;;1.55;100.00;100176.25;5010284;28;20072;-71
2023/04/06 04:21:25;;;;;;;13.80;9.93;;;;;;;1.65;100.00;100192.16;4997209;28;20077;-68
2023/04/06 04:23:50;;;;;;;12.97;9.53;;;;;;;1.58;100.00;100183.22;5009955;28;20058;-69
2023/04/06 04:26:16;;;;;;;13.30;9.57;;;;;;;1.68;100.00;100190.69;5010475;28;20566;-70
2023/04/06 04:28:41;;;;;;;13.63;10.20;;;;;;;1.71;100.00;100193.44;5010536;28;20550;-71
2023/04/06 04:31:07;;;;;;;15.18;10.55;;;;;;;1.63;100.00;100192.03;5010350;28;20066;-74
2023/04/06 04:33:32;;;;;;;13.80;10.23;;;;;;;1.40;100.00;100143.03;5010616;28;20088;-72
2023/04/06 04:35:59;;;;;;;15.35;10.60;;;;;;;1.77;100.00;100185.38;5013932;28;20030;-68
2023/04/06 04:38:24;;;;;;;14.13;10.45;;;;;;;1.91;100.00;100199.00;5014225;28;20042;-71
2023/04/06 04:40:50;;;;;;;15.07;11.27;;;;;;;2.00;100.00;100207.25;5014086;28;20065;-71
2023/04/06 04:43:15;;;;;;;17.25;10.57;;;;;;;2.06;100.00;100194.06;5013875;28;20049;-70
2023/04/06 04:45:41;;;;;;;13.27;10.20;;;;;;;2.25;100.00;100198.69;5014339;28;20092;-68
2023/04/06 04:48:07;;;;;;;14.80;9.18;;;;;;;2.02;100.00;100169.16;5014106;28;20475;-69
2023/04/06 04:50:33;;;;;;;14.18;10.48;;;;;;;2.31;100.00;100194.00;5013839;28;20614;-75
2023/04/06 04:52:58;;;;;;;12.98;9.45;;;;;;;2.13;100.00;100185.16;5013757;28;20044;-70
2023/04/06 04:55:24;;;;;;;15.25;9.68;;;;;;;2.14;100.00;100184.38;5014404;28;20033;-71
2023/04/06 04:57:49;;;;;;;14.43;10.13;;;;;;;2.09;100.00;100194.25;5013860;28;20050;-73
2023/04/06 05:00:15;;;;;;;11.68;8.63;;;;;;;2.04;100.00;100201.56;5014622;28;20050;-71
2023/04/06 05:02:40;;;;;;;16.05;10.50;;;;;;;1.84;100.00;100156.09;5013557;28;20455;-68
2023/04/06 05:05:07;;;;;;;13.98;10.20;;;;;;;2.06;100.00;100186.41;5014263;28;20161;-66
2023/04/06 05:07:33;;;;;;;8.68;6.05;;;;;;;1.81;100.00;100151.69;5013359;28;20046;-68
2023/04/06 05:09:59;;;;;;;11.00;7.20;;;;;;;2.16;100.00;100203.19;5012816;28;20045;-68
2023/04/06 05:12:25;;;;;;;12.90;9.07;;;;;;;2.18;100.00;100205.06;5013258;28;20026;-72
2023/04/06 05:14:50;;;;;;;10.55;6.72;;;;;;;2.00;100.00;100174.16;5013048;28;20045;-72
2023/04/06 05:17:16;;;;;;;13.98;10.05;;;;;;;1.99;100.00;100180.00;5027236;28;20571;-72
2023/04/06 05:19:44;;;;;;;11.23;7.50;;;;;;;1.94;100.00;100171.19;5008177;28;20073;-73
2023/04/06 05:22:10;;;;;;;14.32;10.32;;;;;;;2.03;100.00;100198.94;4994936;28;20137;-74
2023/04/06 05:24:35;;;;;;;14.65;10.55;;;;;;;2.04;100.00;100208.34;5005861;28;20044;-74
2023/04/06 05:27:01;;;;;;;10.18;6.72;;;;;;;1.66;100.00;100156.63;5012454;28;20125;-72
2023/04/06 05:29:27;;;;;;;11.88;8.85;;;;;;;1.96;100.00;100181.47;5013704;28;20042;-71
2023/04/06 05:31:52;;;;;;;15.25;10.07;;;;;;;2.09;100.00;100184.06;5000548;28;20549;-73
2023/04/06 05:34:18;;;;;;;13.45;9.60;;;;;;;2.05;100.00;100144.78;5012576;28;20463;-73
2023/04/06 05:36:44;;;;;;;12.13;9.02;;;;;;;2.52;100.00;100191.97;5011035;28;20037;-70
2023/04/06 05:39:09;;;;;;;14.88;10.63;;;;;;;2.58;100.00;100189.81;5012779;28;20068;-71
2023/04/06 05:41:35;;;;;;;15.00;10.35;;;;;;;2.76;100.00;100196.88;5012475;28;20135;-72
2023/04/06 05:44:01;;;;;;;10.77;6.80;;;;;;;2.91;100.00;100192.72;5012422;28;20046;-66
2023/04/06 05:46:26;;;;;;;10.95;7.72;;;;;;;2.99;100.00;100190.69;5012271;28;20042;-70
2023/04/06 05:48:52;;;;;;;11.27;7.00;;;;;;;3.06;100.00;100172.41;5013003;28;20049;-70
2023/04/06 05:51:17;;;;;;;10.88;8.02;;;;;;;3.19;100.00;100196.13;5012144;28;20413;-71
2023/04/06 05:53:42;;;;;;;13.85;8.52;;;;;;;3.32;100.00;100188.44;5012527;28;20042;-71
2023/04/06 05:56:08;;;;;;;13.25;9.52;;;;;;;3.27;100.00;100150.69;5012469;28;20505;-72
2023/04/06 05:58:33;;;;;;;9.27;5.55;;;;;;;3.39;100.00;100171.88;5010732;28;20077;-72
2023/04/06 06:01:00;;;;;;;12.23;7.40;;;;;;;3.09;100.00;100141.13;5012606;28;20098;-71
2023/04/06 06:03:25;;;;;;;7.28;4.68;;;;;;;3.25;100.00;100171.00;5011071;28;20045;-72
2023/04/06 06:05:51;;;;;;;12.35;8.85;;;;;;;3.47;100.00;100173.19;5012168;28;20046;-72
2023/04/06 06:08:17;;;;;;;9.95;6.30;;;;;;;3.60;100.00;100174.84;5012263;28;20125;-71
2023/04/06 06:10:42;;;;;;;12.52;9.52;;;;;;;3.81;100.00;100166.66;5012402;28;20038;-73
2023/04/06 06:13:09;;;;;;;12.25;7.35;;;;;;;3.69;100.00;100177.06;5012437;28;20038;-72
2023/04/06 06:15:34;;;;;;;9.40;6.40;;;;;;;3.85;100.00;100174.59;4998566;28;20034;-69
2023/04/06 06:18:00;;;;;;;6.60;3.88;;;;;;;3.81;100.00;100164.13;5007644;28;20116;-72
2023/04/06 06:20:26;;;;;;;7.82;4.40;;;;;;;3.87;100.00;100193.44;4992554;28;20465;-71
2023/04/06 06:22:52;;;;;;;9.63;7.32;;;;;;;3.78;100.00;100158.84;5008036;28;20128;-72
2023/04/06 06:25:17;;;;;;;12.57;8.68;;;;;;;3.49;100.00;100089.97;5012249;28;20046;-71
2023/04/06 06:27:43;;;;;;;11.40;7.97;;;;;;;4.01;100.00;100155.97;5012031;28;20045;-72
2023/04/06 06:30:09;;;;;;;12.82;7.85;;;;;;;4.21;100.00;100174.09;4995140;28;20116;-70
2023/04/06 06:32:34;;;;;;;11.88;8.07;;;;;;;4.18;100.00;100184.16;4992216;28;20031;-72
2023/04/06 06:35:00;;;;;;;12.20;7.35;;;;;;;4.16;100.00;100188.28;4996327;28;20069;-73
2023/04/06 06:37:25;;;;;;;11.68;7.72;;;;;;;4.28;100.00;100188.13;4994001;28;20050;-72
2023/04/06 06:39:51;;;;;;;10.23;6.80;;;;;;;4.20;100.00;100186.00;5011962;28;20500;-72
2023/04/06 06:42:16;;;;;;;12.55;6.47;;;;;;;4.25;100.00;100183.72;5011605;28;20038;-73
2023/04/06 06:44:42;;;;;;;11.15;8.48;;;;;;;4.52;100.00;100191.19;5011475;28;20057;-74
2023/04/06 06:47:07;;;;;;;13.20;8.82;;;;;;;4.51;100.00;100171.53;5011909;28;20042;-71
2023/04/06 06:49:33;;;;;;;12.45;7.50;;;;;;;4.51;100.00;100199.63;5011001;28;20109;-71
2023/04/06 06:51:58;;;;;;;11.95;8.18;;;;;;;4.42;100.00;100161.66;5011523;28;20076;-74
2023/04/06 06:54:24;;;;;;;13.73;8.55;;;;;;;4.53;100.00;100190.41;5011859;28;20030;-70
2023/04/06 06:56:49;;;;;;;9.00;6.78;;;;;;;4.62;99.92;100190.94;5010567;28;20410;-70
2023/04/06 06:59:16;;;;;;;9.98;6.68;;;;;;;4.49;100.00;100191.91;5011363;28;20092;-72
2023/04/06 07:01:41;;;;;;;11.85;8.20;;;;;;;4.36;100.00;100177.56;5011517;28;20080;-73
2023/04/06 07:04:08;;;;;;;11.85;9.23;;;;;;;4.35;100.00;100198.78;5010745;28;20026;-73
2023/04/06 07:06:35;;;;;;;11.48;8.52;;;;;;;4.29;100.00;100195.88;5003191;28;20129;-74
2023/04/06 07:09:02;;;;;;;13.10;8.90;;;;;;;4.21;100.00;100205.66;5005590;28;20508;-72
2023/04/06 07:11:28;;;;;;;14.32;10.25;;;;;;;4.33;100.00;100202.91;5011075;28;20038;-70
2023/04/06 07:13:54;;;;;;;11.48;7.35;;;;;;;4.29;100.00;100183.09;5010984;28;20030;-72
2023/04/06 07:16:19;;;;;;;13.88;10.63;;;;;;;4.27;100.00;100140.38;5011455;28;20404;-72
2023/04/06 07:18:45;;;;;;;9.88;7.43;;;;;;;4.58;100.00;100188.09;5008183;28;20131;-72
2023/04/06 07:21:10;;;;;;;13.95;9.57;;;;;;;4.55;100.00;100173.47;5010983;28;20064;-73
2023/04/06 07:23:36;;;;;;;14.90;10.35;;;;;;;4.98;100.00;100188.63;5010602;28;20488;-69
2023/04/06 07:26:01;;;;;;;14.32;9.70;;;;;;;4.74;100.00;100149.81;5010913;28;20184;-71
2023/04/06 07:28:27;;;;;;;14.23;9.55;;;;;;;5.21;100.00;100196.69;5010511;28;20038;-72
2023/04/06 07:30:54;;;;;;;12.35;9.95;;;;;;;5.49;100.00;100196.47;5010868;28;20042;-73
2023/04/06 07:33:19;;;;;;;12.57;10.10;;;;;;;5.60;100.00;100188.50;5010587;28;20045;-70
2023/04/06 07:35:45;;;;;;;13.00;9.38;;;;;;;5.61;99.49;100198.81;5010896;28;20034;-70
2023/04/06 07:38:11;;;;;;;11.75;8.55;;;;;;;5.61;99.88;100191.13;5010818;28;20506;-70
2023/04/06 07:40:37;;;;;;;11.98;7.80;;;;;;;5.60;98.08;100193.63;5010243;28;20049;-72
2023/04/06 07:43:02;;;;;;;12.15;8.68;;;;;;;5.25;100.00;100120.97;5010769;28;20471;-72
2023/04/06 07:45:28;;;;;;;14.52;9.85;;;;;;;5.84;98.87;100188.88;5009327;28;20073;-71
2023/04/06 07:47:53;;;;;;;13.43;9.95;;;;;;;5.90;98.75;100186.63;5010256;28;20057;-72
2023/04/06 07:50:19;;;;;;;14.27;10.65;;;;;;;6.04;99.21;100173.66;5010407;28;20044;-71
2023/04/06 07:52:45;;;;;;;15.68;9.07;;;;;;;6.24;98.13;100185.81;5010715;28;20042;-75
2023/04/06 07:55:10;;;;;;;13.40;10.30;;;;;;;6.53;98.51;100182.91;5009335;28;20045;-69
2023/04/06 07:57:36;;;;;;;11.30;7.93;;;;;;;6.42;95.74;100174.69;5010394;28;20479;-68
2023/04/06 08:00:03;;;;;;;14.90;8.93;;;;;;;6.46;98.59;100176.59;5009958;28;20042;-68
2023/04/06 08:02:29;;;;;;;12.55;9.32;;;;;;;6.36;97.73;100174.41;5010063;28;20033;-70
2023/04/06 08:04:54;;;;;;;11.95;9.30;;;;;;;6.40;98.72;100173.72;5007882;28;20045;-67
2023/04/06 08:07:20;;;;;;;11.60;7.80;;;;;;;6.60;98.24;100177.25;4998844;28;20397;-70
2023/04/06 08:09:45;;;;;;;11.85;8.35;;;;;;;6.65;97.90;100168.09;5010000;28;20121;-68
2023/04/06 08:12:11;;;;;;;13.18;9.25;;;;;;;6.57;98.90;100139.53;5007611;28;20100;-67
2023/04/06 08:14:38;;;;;;;14.20;10.48;;;;;;;6.63;98.32;100138.94;5009989;28;20092;-72
2023/04/06 08:17:03;;;;;;;13.15;8.25;;;;;;;7.07;99.62;100164.94;5009013;28;20045;-70
2023/04/06 08:19:29;;;;;;;8.80;6.65;;;;;;;6.89;96.50;100158.13;5009212;28;20045;-70
2023/04/06 08:21:54;;;;;;;11.85;8.68;;;;;;;6.89;96.86;100147.88;5006612;28;20048;-68
2023/04/06 08:24:20;;;;;;;12.73;9.68;;;;;;;7.13;98.96;100154.94;5000935;28;20046;-70
2023/04/06 08:26:45;;;;;;;10.80;7.97;;;;;;;7.20;95.93;100164.69;4999019;28;20045;-71
2023/04/06 08:29:11;;;;;;;12.90;8.45;;;;;;;7.37;97.08;100146.59;4992548;28;20416;-71
2023/04/06 08:31:36;;;;;;;7.75;6.45;;;;;;;7.42;93.43;100155.38;4990126;28;20049;-70
2023/04/06 08:34:04;;;;;;;10.45;7.35;;;;;;;7.47;95.06;100153.00;4990671;28;20548;-67
2023/04/06 08:36:30;;;;;;;7.57;5.78;;;;;;;7.31;91.52;100147.16;4998688;28;20126;-67
2023/04/06 08:38:56;;;;;;;10.50;7.03;;;;;;;7.41;92.66;100136.53;5007835;28;20148;-68
2023/04/06 08:41:21;;;;;;;8.80;5.65;;;;;;;7.34;91.68;100131.91;5007226;28;20551;-70
2023/04/06 08:43:50;;;;;;;8.63;6.45;;;;;;;7.44;90.95;100141.78;5008503;28;20496;-69
2023/04/06 08:46:15;;;;;;;9.75;7.28;;;;;;;7.47;92.02;100107.63;5000610;28;20038;-69
2023/04/06 08:48:43;;;;;;;13.25;9.02;;;;;;;7.65;91.23;100132.38;5009734;28;20037;-70
2023/04/06 08:51:09;;;;;;;22.23;12.95;;;;;;;7.87;93.35;100126.47;5007459;28;20568;-69
2023/04/06 08:53:36;;;;;;;31.30;15.88;;;;;;;7.92;92.22;100131.00;5009116;28;20038;-70
2023/04/06 08:56:03;;;;;;;10.90;8.00;;;;;;;7.77;94.29;100117.47;5007101;28;20508;-70
2023/04/06 08:58:40;;;;;;;10.32;7.40;;;;;;;7.96;94.53;100131.97;5007131;28;20045;-71
2023/04/06 09:01:08;;;;;;;17.48;11.80;;;;;;;8.26;92.91;100111.81;5010351;28;20065;-70
2023/04/06 09:03:38;;;;;;;13.05;9.05;;;;;;;8.43;89.95;100124.47;5010227;28;20041;-71
2023/04/06 09:06:04;;;;;;;9.48;6.55;;;;;;;8.49;91.11;100123.88;5009934;28;20484;-70
2023/04/06 09:08:29;;;;;;;8.57;7.13;;;;;;;8.55;90.33;100117.25;5010004;28;20045;-70
2023/04/06 09:10:55;;;;;;;8.70;6.80;;;;;;;8.53;87.94;100107.72;5009944;28;20049;-67
2023/04/06 09:13:20;;;;;;;9.15;6.80;;;;;;;8.73;90.79;100116.22;5009769;28;20121;-67
2023/04/06 09:15:46;;;;;;;7.57;5.85;;;;;;;8.55;86.42;100124.13;5010350;28;20034;-68
2023/04/06 09:18:11;;;;;;;8.13;6.50;;;;;;;8.70;89.05;100110.97;5008786;28;20038;-68
2023/04/06 09:20:37;;;;;;;9.38;6.88;;;;;;;8.80;88.54;100099.31;5012022;28;20495;-70
2023/04/06 09:23:02;;;;;;;8.50;6.57;;;;;;;9.09;88.11;100109.84;5013414;28;20451;-70
2023/04/06 09:25:28;;;;;;;8.90;5.97;;;;;;;9.06;87.44;100116.63;5013387;28;20104;-73
2023/04/06 09:28:06;;;;;;;5.82;4.97;;;;;;;9.12;83.22;100121.16;5013263;28;20107;-67
2023/04/06 09:30:32;;;;;;;7.25;5.82;;;;;;;9.12;85.36;100115.09;5013510;28;20041;-68
2023/04/06 09:32:59;;;;;;;8.95;7.30;;;;;;;9.45;87.48;100102.56;5013685;28;20412;-70
2023/04/06 09:35:26;;;;;;;8.13;6.13;;;;;;;9.45;85.32;100107.72;5013501;28;20132;-69
2023/04/06 09:37:53;;;;;;;8.70;6.93;;;;;;;9.72;90.38;100104.38;5013596;28;20467;-69
2023/04/06 09:40:19;;;;;;;7.97;6.70;;;;;;;9.69;83.96;100086.22;5013152;28;20050;-72
2023/04/06 09:42:57;;;;;;;8.82;6.32;;;;;;;9.85;90.58;100067.84;5013432;28;20062;-71
2023/04/06 09:45:23;;;;;;;7.15;5.60;;;;;;;9.94;82.33;100107.66;5013397;28;20037;-69
2023/04/06 09:47:50;;;;;;;6.88;5.32;;;;;;;10.24;79.29;100106.94;5013072;28;20500;-70
2023/04/06 09:50:18;;;;;;;8.40;5.25;;;;;;;10.08;79.63;100110.69;5012981;28;20041;-71
2023/04/06 09:52:50;;;;;;;6.80;5.60;;;;;;;9.70;84.69;100098.28;5013131;28;20117;-69
2023/04/06 09:55:24;;;;;;;7.88;6.25;;;;;;;9.96;83.92;100095.72;5013313;28;20049;-71
2023/04/06 09:57:50;;;;;;;7.90;6.30;;;;;;;10.33;83.58;100081.41;5013029;28;20064;-67
2023/04/06 10:00:19;;;;;;;7.05;5.50;;;;;;;10.23;81.27;100100.91;5012767;28;20547;-69
2023/04/06 10:03:08;;;;;;;9.02;6.07;;;;;;;10.33;85.49;100096.88;5013053;28;20045;-75
2023/04/06 10:05:40;;;;;;;;;;;;;;;10.20;83.09;100088.78;5013510;28;20120;-67
2023/04/06 10:08:13;;;;;;;10.65;7.03;;;;;;;10.19;85.43;100053.50;5004978;28;19961;-71
2023/04/06 10:10:39;;;;;;;8.02;6.15;;;;;;;10.92;80.55;100103.91;5003199;28;20038;-71
2023/04/06 10:13:05;;;;;;;8.35;6.28;;;;;;;11.15;80.18;100089.03;5012514;28;20034;-71
2023/04/06 10:15:31;;;;;;;9.00;7.18;;;;;;;11.35;80.81;100078.41;5012750;28;20041;-68
2023/04/06 10:17:58;;;;;;;7.97;6.43;;;;;;;11.36;78.32;100080.16;5011776;28;20427;-69
2023/04/06 10:20:28;;;;;;;6.30;5.50;;;;;;;11.51;77.46;100082.28;5012535;28;20042;-70
2023/04/06 10:23:06;;;;;;;7.63;6.20;;;;;;;11.25;80.51;100080.75;5011157;28;20038;-71
2023/04/06 10:25:34;;;;;;;7.90;6.30;;;;;;;11.31;79.96;100069.69;5012323;28;20069;-72
2023/04/06 10:28:07;;;;;;;7.22;5.88;;;;;;;11.59;77.48;100071.31;5012148;28;20096;-67
2023/04/06 10:30:34;;;;;;;6.07;4.95;;;;;;;11.88;74.40;100053.06;5012461;28;20042;-68
2023/04/06 10:32:59;;;;;;;8.27;6.18;;;;;;;12.27;74.57;100051.44;5011958;28;20511;-72
2023/04/06 10:35:37;;;;;;;8.35;7.00;;;;;;;12.54;76.76;100050.31;5010581;28;20038;-68
2023/04/06 10:38:05;;;;;;;7.65;6.20;;;;;;;12.29;77.78;100045.44;5008750;28;20046;-71
2023/04/06 10:40:34;;;;;;;6.82;5.57;;;;;;;11.73;75.91;100040.63;5007811;28;20512;-70
2023/04/06 10:43:19;;;;;;;6.47;5.40;;;;;;;11.54;81.98;100039.28;5006391;28;20048;-71
2023/04/06 10:45:45;;;;;;;8.95;6.90;;;;;;;12.09;77.87;100038.94;5011980;28;20033;-70
2023/04/06 10:48:18;;;;;;;6.60;4.45;;;;;;;12.01;72.26;100040.47;5009818;28;20393;-70
2023/04/06 10:50:48;;;;;;;5.57;4.50;;;;;;;11.89;73.38;100038.44;5030902;28;20044;-70
2023/04/06 10:53:22;;;;;;;5.93;4.43;;;;;;;12.22;75.13;100033.19;5017555;28;20077;-70
2023/04/06 10:55:49;;;;;;;6.00;4.55;;;;;;;12.57;74.76;100019.31;4992292;28;20416;-70
2023/04/06 10:58:15;;;;;;;6.10;4.88;;;;;;;11.92;75.92;100023.84;4992153;28;20037;-70
2023/04/06 11:00:48;;;;;;;7.00;5.25;;;;;;;12.04;78.78;100018.13;5010690;28;20668;-70
2023/04/06 11:03:14;;;;;;;6.25;4.60;;;;;;;11.71;73.93;100019.00;5009387;28;20156;-70
2023/04/06 11:05:47;;;;;;;5.78;4.78;;;;;;;12.13;73.58;100004.53;5011219;28;20052;-70
2023/04/06 11:08:26;;;;;;;5.80;4.70;;;;;;;12.61;71.26;100011.66;5012180;28;20046;-71
2023/04/06 11:10:52;;;;;;;5.43;4.47;;;;;;;12.49;72.19;100013.97;5009958;28;20041;-71
2023/04/06 11:13:18;;;;;;;6.82;4.95;;;;;;;12.55;76.27;100011.50;5011490;28;20045;-71
2023/04/06 11:15:43;;;;;;;5.30;4.45;;;;;;;11.89;75.59;100017.75;5011593;28;20034;-71